createdAt,value
2023-02-05T00:09:30.247Z,86.68
2023-02-05T00:19:34.417Z,86.89
2023-02-05T00:29:37.207Z,87.53
2023-02-05T00:39:41.474Z,88.04
2023-02-05T00:49:44.446Z,88.10
2023-02-05T00:59:48.434Z,88.07
2023-02-05T01:09:51.147Z,88.28
2023-02-05T01:19:55.269Z,88.32
2023-02-05T01:29:57.971Z,88.47
2023-02-05T01:40:02.067Z,88.68
2023-02-05T01:50:04.809Z,88.57
2023-02-05T02:00:11.270Z,88.39
2023-02-05T02:10:16.299Z,88.19
2023-02-05T02:20:23.821Z,88.58
2023-02-05T02:30:33.450Z,88.67
2023-02-05T02:40:41.484Z,89.42
2023-02-05T02:50:49.412Z,89.02
2023-02-05T03:00:54.204Z,88.89
2023-02-05T03:11:03.608Z,89.15
2023-02-05T03:21:10.680Z,89.54
2023-02-05T03:31:19.688Z,91.25
2023-02-05T03:41:52.932Z,92.71
2023-02-05T03:52:01.969Z,94.11
2023-02-05T04:02:05.612Z,94.84
2023-02-05T04:12:10.940Z,95.39
2023-02-05T04:22:13.564Z,94.99
2023-02-05T04:32:17.626Z,96.19
2023-02-05T04:42:20.404Z,96.46
2023-02-05T04:52:24.593Z,96.97
2023-02-05T05:02:27.470Z,96.78
2023-02-05T05:12:31.454Z,97.49
2023-02-05T05:22:34.521Z,97.87
2023-02-05T05:32:38.486Z,97.78
2023-02-05T05:42:58.436Z,98.73
2023-02-05T05:53:02.401Z,98.52
2023-02-05T06:03:05.439Z,98.71
2023-02-05T06:13:09.404Z,99.10
2023-02-05T06:23:12.111Z,99.34
2023-02-05T06:33:16.185Z,99.22
2023-02-05T06:43:18.833Z,99.32
2023-02-05T06:53:22.869Z,99.26
2023-02-05T07:03:25.497Z,99.48
2023-02-05T07:13:29.618Z,99.64
2023-02-05T07:23:32.492Z,99.80
2023-02-05T07:33:36.983Z,100.21
2023-02-05T07:43:40.426Z,99.85
2023-02-05T07:53:44.442Z,100.17
2023-02-05T08:03:47.085Z,99.57
2023-02-05T08:13:51.331Z,100.07
2023-02-05T08:23:53.953Z,100.28
2023-02-05T08:33:59.974Z,100.39
2023-02-05T08:44:02.624Z,99.88
2023-02-05T08:54:09.203Z,100.05
2023-02-05T09:04:14.152Z,99.62
2023-02-05T09:14:18.243Z,98.99
2023-02-05T09:24:20.903Z,99.61
2023-02-05T09:34:24.857Z,99.30
2023-02-05T09:44:43.455Z,98.78
2023-02-05T09:54:53.042Z,99.46
2023-02-05T10:04:55.941Z,99.87
2023-02-05T10:15:12.601Z,100.09
2023-02-05T10:25:50.416Z,98.03
2023-02-05T10:36:02.095Z,97.20
2023-02-05T10:46:06.422Z,97.63
2023-02-05T10:56:17.609Z,96.73
2023-02-05T11:06:22.379Z,93.88
2023-02-05T11:16:36.583Z,88.25
2023-02-05T11:26:39.194Z,90.24
2023-02-05T11:36:50.768Z,84.32
2023-02-05T11:46:56.872Z,78.54
2023-02-05T11:57:07.446Z,81.75
2023-02-05T12:07:13.284Z,80.88
2023-02-05T12:17:42.990Z,75.63
2023-02-05T12:27:58.270Z,71.19
2023-02-05T12:38:13.494Z,75.68
2023-02-05T12:48:40.244Z,77.15
2023-02-05T12:58:47.488Z,76.26
2023-02-05T13:08:53.118Z,76.50
2023-02-05T13:19:01.966Z,74.27
2023-02-05T13:29:10.252Z,80.45
2023-02-05T13:39:38.281Z,80.85
2023-02-05T13:50:06.842Z,75.15
2023-02-05T14:00:14.598Z,77.01
2023-02-05T14:10:28.854Z,75.58
2023-02-05T14:20:38.172Z,73.09
2023-02-05T14:30:53.128Z,71.73
2023-02-05T14:41:09.129Z,75.45
2023-02-05T14:51:22.484Z,75.58
2023-02-05T15:01:44.440Z,75.27
2023-02-05T15:12:04.562Z,74.67
2023-02-05T15:22:22.471Z,75.84
2023-02-05T15:32:29.655Z,76.79
2023-02-05T15:42:38.185Z,77.27
2023-02-05T15:52:41.252Z,79.17
2023-02-05T16:02:54.682Z,80.44
2023-02-05T16:13:01.805Z,81.00
2023-02-05T16:23:08.796Z,80.62
2023-02-05T16:33:23.047Z,80.37
2023-02-05T16:43:32.449Z,81.02
2023-02-05T16:53:38.150Z,81.62
2023-02-05T17:03:48.983Z,82.09
2023-02-05T17:13:51.729Z,82.84
2023-02-05T17:23:59.148Z,82.78
2023-02-05T17:34:02.205Z,84.45
2023-02-05T17:44:06.989Z,84.81
2023-02-05T17:54:13.598Z,85.56
2023-02-05T18:04:18.513Z,85.94
2023-02-05T18:14:22.316Z,86.29
2023-02-05T18:24:26.783Z,86.54
2023-02-05T18:34:29.425Z,87.21
2023-02-05T18:44:33.627Z,87.85
2023-02-05T18:54:36.266Z,87.99
2023-02-05T19:04:41.101Z,88.84
2023-02-05T19:14:43.795Z,88.71
2023-02-05T19:24:47.756Z,88.92
2023-02-05T19:34:50.336Z,89.97
2023-02-05T19:44:54.305Z,89.98
2023-02-05T19:54:56.918Z,89.49
2023-02-05T20:05:00.961Z,89.79
2023-02-05T20:15:04.009Z,90.18
2023-02-05T20:25:08.761Z,90.87
2023-02-05T20:35:12.231Z,90.91
2023-02-05T20:45:17.244Z,90.65
2023-02-05T20:55:20.329Z,90.32
2023-02-05T21:05:26.420Z,91.31
2023-02-05T21:15:29.221Z,91.14
2023-02-05T21:25:36.214Z,90.76
2023-02-05T21:35:40.370Z,91.41
2023-02-05T21:45:44.464Z,91.66
2023-02-05T22:06:44.119Z,91.86
2023-02-05T22:16:53.692Z,92.42
2023-02-05T22:49:43.319Z,93.62
2023-02-05T23:12:11.728Z,92.98
2023-02-05T23:22:16.207Z,93.55
2023-02-05T23:43:47.228Z,93.95
2023-02-05T23:54:27.882Z,94.53
